Main page
Satellite images 10-day forecastsClimateMarine weather Cyclones Lightning AirportsFAQ Newsletter About
Weather : Europe Africa North America South America Asia Australia-Oceania Others
Languages Contact

Leeds Bradford, England

Leeds Bradford International Airport

latitude: 53-52N, longitude: 001-39W, elevation: 208 m


METAR: EGNM 281650Z 25013KT 9999 FEW043 17/12 Q1013
TAF: EGNM 281101Z 2812/2912 23012KT 9999 FEW030 PROB40 TEMPO 2812/2818 24015G25KT 7000 SHRA

Time: 18:05 (17:05 UTC)

Current weather observation

The report was made 15 minutes ago, at 16:50 UTC
Wind 13 kt from the West/Southwest
Temperature 17°C
Humidity 72%
Pressure 1013 hPa
Visibility 10 km or more
Few clouds at a height of 4300 ft

Change units

Forecast

The report was made 6 hours and 4 minutes ago, at 11:01 UTC
Forecast valid from 28 at 12 UTC to 29 at 12 UTC
Wind 12 kt from the Southwest
Visibility 10 km or more
Few clouds at a height of 3000 ft
Probability 40% :
Temporary
from 28 at 12 UTC to 28 at 18 UTC
Wind 15 kt from the West/Southwest with gusts up to 25 kt
Visibility: 7000 m
rain showers
The information on this site is subject to a disclaimer
Weather : Europe Africa North America South America Asia Australia-Oceania Others
Satellite images 10-day forecastsClimateMarine weather Cyclones Lightning AirportsFAQ Languages Contact Newsletter About